Time;durP1;ratioP1;P1;durP2;ratioP2;P2;SDS_P1;SDS_P2;PMS_P1;PMS_P2;Temp;Humidity;BMP_temperature;BMP_pressure;BME280_temperature;BME280_humidity;BME280_pressure;Samples;Min_cycle;Max_cycle;Signal;HPM_P1;HPM_P2
2023/03/26 00:07:46;;;;;;;9.40;2.90;;;20.80;64.60;;;;;;5142571;27;20394;-76
2023/03/26 00:10:11;;;;;;;8.57;2.63;;;20.90;61.00;;;;;;5125811;28;20031;-77
2023/03/26 00:12:37;;;;;;;9.32;2.72;;;20.80;57.90;;;;;;5132634;22;20046;-75
2023/03/26 00:15:03;;;;;;;8.55;2.45;;;20.80;57.20;;;;;;5070813;28;20523;-75
2023/03/26 00:17:29;;;;;;;8.65;2.45;;;20.80;57.90;;;;;;5066915;28;20100;-74
2023/03/26 00:19:55;;;;;;;6.88;2.47;;;20.80;59.20;;;;;;5068321;28;20541;-74
2023/03/26 00:22:22;;;;;;;7.97;2.35;;;20.80;58.60;;;;;;5068131;28;20035;-74
2023/03/26 00:24:50;;;;;;;5.85;2.50;;;20.90;60.10;;;;;;5066892;28;20067;-73
2023/03/26 00:27:16;;;;;;;5.35;2.33;;;20.90;60.30;;;;;;5065605;28;20029;-73
2023/03/26 00:29:42;;;;;;;4.85;2.60;;;20.90;60.70;;;;;;5066496;28;20028;-73
2023/03/26 00:32:08;;;;;;;10.43;2.70;;;20.90;60.90;;;;;;5056444;28;20091;-74
2023/03/26 00:34:34;;;;;;;4.72;2.13;;;20.90;60.90;;;;;;5049542;28;20032;-74
2023/03/26 00:37:01;;;;;;;9.50;2.67;;;20.90;61.40;;;;;;5065580;28;20029;-75
2023/03/26 00:39:28;;;;;;;7.95;2.20;;;20.90;61.30;;;;;;5067580;28;20021;-75
2023/03/26 00:41:54;;;;;;;5.68;2.25;;;21.00;61.70;;;;;;5067240;28;20393;-74
2023/03/26 00:44:20;;;;;;;5.60;2.10;;;21.00;61.80;;;;;;5070025;28;20441;-74
2023/03/26 00:46:47;;;;;;;6.60;2.25;;;21.00;61.90;;;;;;5061531;28;20119;-74
2023/03/26 00:49:13;;;;;;;9.23;2.20;;;20.90;62.00;;;;;;5049683;28;20123;-74
2023/03/26 00:51:40;;;;;;;7.70;2.40;;;20.90;62.20;;;;;;5049895;28;20040;-74
2023/03/26 00:54:07;;;;;;;8.05;2.42;;;20.90;62.40;;;;;;5066325;28;20036;-74
2023/03/26 00:56:34;;;;;;;5.40;2.20;;;20.90;62.50;;;;;;5049604;28;20037;-74
2023/03/26 00:59:00;;;;;;;5.70;2.25;;;20.90;62.50;;;;;;5075804;28;20377;-74
2023/03/26 01:01:27;;;;;;;4.85;2.42;;;20.90;62.70;;;;;;5069752;28;20036;-74
2023/03/26 01:03:57;;;;;;;6.97;2.47;;;20.90;62.60;;;;;;5069517;28;20025;-77
2023/03/26 01:06:27;;;;;;;;;;;20.90;62.50;;;;;;5070163;28;20032;-74
2023/03/26 01:08:58;;;;;;;12.07;3.17;;;20.90;62.60;;;;;;5073182;28;19923;-74
2023/03/26 01:11:28;;;;;;;9.48;2.80;;;20.90;62.40;;;;;;5072797;28;20031;-75
2023/03/26 01:14:01;;;;;;;7.38;2.08;;;21.00;63.00;;;;;;5062490;28;20078;-75
2023/03/26 01:16:40;;;;;;;14.88;2.78;;;21.00;62.90;;;;;;5052481;28;20083;-75
2023/03/26 01:19:11;;;;;;;13.97;3.00;;;21.00;63.00;;;;;;5052364;28;20032;-74
2023/03/26 01:21:38;;;;;;;8.00;2.40;;;21.00;63.30;;;;;;5035472;28;20267;-74
2023/03/26 01:24:08;;;;;;;11.52;2.17;;;21.00;63.20;;;;;;5052330;28;20024;-75
2023/03/26 01:26:52;;;;;;;12.32;2.63;;;20.90;63.00;;;;;;5068600;28;20426;-74
2023/03/26 01:29:46;;;;;;;11.65;2.53;;;20.90;63.00;;;;;;5052162;28;20031;-74
2023/03/26 01:32:24;;;;;;;10.02;2.53;;;20.90;63.60;;;;;;5053612;28;20036;-74
2023/03/26 01:35:14;;;;;;;14.82;2.60;;;20.90;63.70;;;;;;5053602;28;20025;-74
2023/03/26 01:38:17;;;;;;;6.32;2.42;;;20.90;63.70;;;;;;5051992;28;20028;-74
2023/03/26 01:40:48;;;;;;;9.27;2.17;;;20.90;64.00;;;;;;5056655;28;20025;-74
2023/03/26 01:43:29;;;;;;;17.92;2.33;;;20.90;64.00;;;;;;5073365;28;20016;-74
2023/03/26 01:45:58;;;;;;;7.30;2.40;;;20.90;64.10;;;;;;5073348;28;20062;-74
2023/03/26 01:48:35;;;;;;;11.63;2.53;;;20.90;64.20;;;;;;5073019;28;20044;-74
2023/03/26 01:51:01;;;;;;;6.35;2.63;;;20.90;64.40;;;;;;5038862;28;20405;-74
2023/03/26 01:53:27;;;;;;;13.55;2.30;;;20.90;63.50;;;;;;5072190;28;20452;-75
2023/03/26 01:55:58;;;;;;;7.15;2.10;;;20.90;63.70;;;;;;5073006;28;20035;-75
2023/03/26 01:58:40;;;;;;;8.05;2.20;;;20.90;63.40;;;;;;5028988;28;20036;-74
2023/03/26 02:01:23;;;;;;;5.43;2.10;;;20.90;64.10;;;;;;5051802;28;20017;-74
2023/03/26 02:04:14;;;;;;;8.15;2.45;;;20.90;63.60;;;;;;5051700;28;20116;-74
2023/03/26 02:06:45;;;;;;;4.78;2.30;;;20.90;64.10;;;;;;5032968;28;20041;-75
2023/03/26 02:09:17;;;;;;;8.40;2.20;;;20.90;63.50;;;;;;5046340;28;20115;-74
2023/03/26 02:11:45;;;;;;;6.22;2.50;;;20.90;63.60;;;;;;5034570;28;20033;-75
2023/03/26 02:14:12;;;;;;;6.13;1.98;;;20.90;63.40;;;;;;5051506;28;20052;-74
2023/03/26 02:16:38;;;;;;;3.92;1.92;;;20.90;64.00;;;;;;5018600;28;20060;-74
2023/03/26 02:19:04;;;;;;;8.48;2.10;;;20.90;64.00;;;;;;5051203;28;20052;-74
2023/03/26 02:21:32;;;;;;;7.93;2.40;;;20.80;64.10;;;;;;5052402;28;20025;-74
2023/03/26 02:24:02;;;;;;;8.25;2.40;;;20.90;64.50;;;;;;5031005;28;20554;-74
2023/03/26 02:26:32;;;;;;;5.90;2.03;;;20.90;64.80;;;;;;5015462;28;20061;-74
2023/03/26 02:29:12;;;;;;;7.78;2.67;;;20.90;64.60;;;;;;5038842;28;20028;-74
2023/03/26 02:31:40;;;;;;;5.10;2.33;;;20.90;64.30;;;;;;5034857;28;20028;-74
2023/03/26 02:34:06;;;;;;;5.28;2.17;;;20.80;64.40;;;;;;5050879;28;20029;-74
2023/03/26 02:36:35;;;;;;;4.97;2.10;;;20.90;64.40;;;;;;5050708;28;20032;-74
2023/03/26 02:39:03;;;;;;;5.47;2.10;;;20.80;64.90;;;;;;5034247;28;20041;-74
2023/03/26 02:41:33;;;;;;;5.88;2.28;;;20.80;64.40;;;;;;5034155;28;20477;-74
2023/03/26 02:44:10;;;;;;;4.95;1.88;;;20.80;64.40;;;;;;5034520;28;20029;-74
2023/03/26 02:46:54;;;;;;;6.43;2.10;;;20.80;64.90;;;;;;5050887;28;20048;-74
2023/03/26 02:49:55;;;;;;;10.30;2.50;;;20.80;64.40;;;;;;5050359;28;20549;-74
2023/03/26 02:52:48;;;;;;;3.20;1.90;;;20.80;64.40;;;;;;5070674;28;20119;-74
2023/03/26 02:55:15;;;;;;;5.30;1.77;;;20.80;64.20;;;;;;5051001;28;20043;-74
2023/03/26 02:57:42;;;;;;;4.35;1.67;;;20.80;63.80;;;;;;5050494;28;20094;-74
2023/03/26 03:00:17;;;;;;;8.05;2.10;;;20.80;64.00;;;;;;5050719;28;20052;-74
2023/03/26 03:03:25;;;;;;;6.22;1.77;;;20.80;63.50;;;;;;5050593;28;20209;-74
2023/03/26 03:05:57;;;;;;;7.45;2.40;;;20.80;64.10;;;;;;5051739;28;20060;-74
2023/03/26 03:08:33;;;;;;;3.78;1.80;;;20.80;64.10;;;;;;5050174;28;20115;-74
2023/03/26 03:11:20;;;;;;;4.67;2.00;;;20.80;65.20;;;;;;5050320;28;20108;-74
2023/03/26 03:13:48;;;;;;;4.78;1.92;;;20.80;64.40;;;;;;5017577;28;20048;-74
2023/03/26 03:16:22;;;;;;;5.65;2.00;;;20.80;64.60;;;;;;5050322;28;20552;-74
2023/03/26 03:18:53;;;;;;;5.63;1.90;;;20.80;64.30;;;;;;5033176;28;20067;-74
2023/03/26 03:21:20;;;;;;;7.25;1.90;;;20.80;64.70;;;;;;5068276;28;20029;-74
2023/03/26 03:23:46;;;;;;;6.18;2.25;;;20.80;64.40;;;;;;5066923;28;20066;-74
2023/03/26 03:26:15;;;;;;;5.35;1.85;;;20.80;64.30;;;;;;5050331;28;20037;-74
2023/03/26 03:28:45;;;;;;;5.07;1.98;;;20.80;64.20;;;;;;5049990;28;20029;-74
2023/03/26 03:31:14;;;;;;;6.95;2.00;;;20.80;64.70;;;;;;5050130;28;20025;-74
2023/03/26 03:33:41;;;;;;;5.68;2.05;;;20.80;64.80;;;;;;5050222;28;20036;-74
2023/03/26 03:36:10;;;;;;;3.40;1.65;;;20.80;64.80;;;;;;5039468;28;20028;-74
2023/03/26 03:38:38;;;;;;;3.17;1.70;;;20.80;64.90;;;;;;5053139;28;20477;-74
2023/03/26 03:41:05;;;;;;;3.92;1.73;;;20.80;63.80;;;;;;5070174;28;20056;-74
2023/03/26 03:43:34;;;;;;;5.18;1.92;;;20.80;63.50;;;;;;5070072;28;20035;-74
2023/03/26 03:46:13;;;;;;;5.43;1.87;;;20.80;63.80;;;;;;5055323;28;20121;-74
2023/03/26 03:48:48;;;;;;;3.15;1.60;;;20.80;64.50;;;;;;5062065;28;20487;-74
2023/03/26 03:51:17;;;;;;;4.65;2.10;;;20.80;63.70;;;;;;5061583;28;20086;-74
2023/03/26 03:53:49;;;;;;;6.40;2.03;;;20.80;63.80;;;;;;5063986;28;20071;-74
2023/03/26 03:56:25;;;;;;;4.38;1.70;;;20.80;64.90;;;;;;5060395;28;20032;-74
2023/03/26 03:59:24;;;;;;;3.75;1.50;;;20.80;63.40;;;;;;5055223;28;20036;-74
2023/03/26 04:01:50;;;;;;;4.72;1.85;;;20.80;63.90;;;;;;5054559;28;20033;-74
2023/03/26 04:04:33;;;;;;;3.88;1.92;;;20.80;64.10;;;;;;5033986;28;20029;-74
2023/03/26 04:07:05;;;;;;;2.47;1.63;;;20.80;64.00;;;;;;5049287;28;20033;-74
2023/03/26 04:09:45;;;;;;;3.63;1.60;;;20.80;63.40;;;;;;5049717;28;20087;-74
2023/03/26 04:12:16;;;;;;;5.68;1.63;;;20.80;64.70;;;;;;5049440;28;20043;-74
2023/03/26 04:15:02;;;;;;;3.40;1.63;;;20.80;64.80;;;;;;5049321;28;20040;-74
2023/03/26 04:17:31;;;;;;;3.45;1.70;;;20.80;65.80;;;;;;5050546;28;20040;-74
2023/03/26 04:20:04;;;;;;;4.65;1.92;;;20.80;65.80;;;;;;5049575;28;20025;-74
2023/03/26 04:22:33;;;;;;;4.47;1.70;;;20.70;65.70;;;;;;5049448;28;20059;-75
2023/03/26 04:25:01;;;;;;;3.30;1.80;;;20.80;65.90;;;;;;5049368;28;20504;-75
2023/03/26 04:27:34;;;;;;;3.28;1.67;;;20.80;65.40;;;;;;5060824;28;20029;-74
2023/03/26 04:30:19;;;;;;;4.72;1.92;;;20.70;65.90;;;;;;5069674;28;20111;-74
2023/03/26 04:32:46;;;;;;;4.88;1.80;;;20.70;65.50;;;;;;5032361;28;20029;-74
2023/03/26 04:35:15;;;;;;;4.60;1.73;;;20.70;65.40;;;;;;5050717;28;20032;-74
2023/03/26 04:37:44;;;;;;;4.60;1.60;;;20.70;65.50;;;;;;5048970;28;20025;-74
2023/03/26 04:40:17;;;;;;;4.50;1.63;;;20.80;65.50;;;;;;5033225;28;20036;-74
2023/03/26 04:43:01;;;;;;;3.78;1.50;;;20.70;64.10;;;;;;5036375;28;20053;-74
2023/03/26 04:45:53;;;;;;;3.25;1.60;;;20.70;64.20;;;;;;5054334;28;20033;-74
2023/03/26 04:48:21;;;;;;;4.00;1.63;;;20.70;64.10;;;;;;5052687;28;20505;-74
2023/03/26 04:50:48;;;;;;;2.65;1.48;;;20.70;64.10;;;;;;5052605;28;20068;-74
2023/03/26 04:53:16;;;;;;;4.78;1.73;;;20.70;64.70;;;;;;5052968;28;20029;-74
2023/03/26 04:56:36;;;;;;;13.30;2.33;;;20.80;64.40;;;;;;5054216;28;20029;-74
2023/03/26 04:59:33;;;;;;;5.25;1.60;;;20.80;65.80;;;;;;5049545;28;20044;-74
2023/03/26 05:02:00;;;;;;;6.85;1.65;;;20.70;64.80;;;;;;5042562;28;20028;-74
2023/03/26 05:04:32;;;;;;;6.75;1.70;;;20.70;65.10;;;;;;5052569;28;20043;-74
2023/03/26 05:06:59;;;;;;;8.25;1.70;;;20.70;65.50;;;;;;5052989;28;20029;-74
2023/03/26 05:09:35;;;;;;;3.60;1.73;;;20.70;65.80;;;;;;5052361;28;20029;-74
2023/03/26 05:12:10;;;;;;;3.58;1.60;;;20.70;66.60;;;;;;5020772;28;20068;-75
2023/03/26 05:14:49;;;;;;;4.55;1.60;;;20.70;66.10;;;;;;5052474;28;20033;-74
2023/03/26 05:17:23;;;;;;;5.40;1.67;;;20.80;65.40;;;;;;5051987;28;20040;-74
2023/03/26 05:19:50;;;;;;;3.13;1.75;;;20.70;65.30;;;;;;5052232;28;20048;-74
2023/03/26 05:22:17;;;;;;;10.23;1.50;;;20.80;64.40;;;;;;5052034;28;20051;-74
2023/03/26 05:25:03;;;;;;;5.50;1.60;;;20.80;64.70;;;;;;5053349;28;20025;-74
2023/03/26 05:27:30;;;;;;;4.65;1.90;;;20.80;64.30;;;;;;5052058;28;20112;-74
2023/03/26 05:30:00;;;;;;;4.97;1.90;;;20.80;64.30;;;;;;5052027;28;20486;-74
2023/03/26 05:32:26;;;;;;;8.77;1.98;;;20.80;64.40;;;;;;5052280;28;20497;-74
2023/03/26 05:34:52;;;;;;;2.17;1.60;;;20.80;64.60;;;;;;5052472;28;20188;-74
2023/03/26 05:37:19;;;;;;;2.35;1.50;;;20.80;64.40;;;;;;5035259;28;20033;-74
2023/03/26 05:39:58;;;;;;;4.35;1.73;;;20.80;64.40;;;;;;5052269;28;20100;-74
2023/03/26 05:42:40;;;;;;;5.30;1.63;;;20.80;64.00;;;;;;5035621;28;20083;-75
2023/03/26 05:45:25;;;;;;;3.92;1.50;;;20.80;64.00;;;;;;5051876;28;20025;-74
2023/03/26 05:47:53;;;;;;;4.03;1.65;;;20.80;64.10;;;;;;5051743;28;20019;-75
2023/03/26 05:50:19;;;;;;;3.70;1.85;;;20.80;64.40;;;;;;5051819;28;20029;-75
2023/03/26 05:52:46;;;;;;;2.38;1.33;;;20.80;64.00;;;;;;5051812;28;20055;-75
2023/03/26 05:55:32;;;;;;;2.63;1.50;;;20.80;64.10;;;;;;5052130;28;20033;-75
2023/03/26 05:58:16;;;;;;;4.18;1.83;;;20.80;64.00;;;;;;5052861;28;20033;-74
2023/03/26 06:01:04;;;;;;;4.07;2.00;;;20.80;64.00;;;;;;5052945;28;20048;-75
2023/03/26 06:03:51;;;;;;;7.00;1.77;;;20.90;64.10;;;;;;5053251;28;20115;-74
2023/03/26 06:06:19;;;;;;;2.90;1.67;;;20.80;64.00;;;;;;5051616;28;20104;-75
2023/03/26 06:08:53;;;;;;;4.70;1.77;;;20.90;64.10;;;;;;5034860;28;20037;-74
2023/03/26 06:11:19;;;;;;;3.35;1.67;;;20.90;64.00;;;;;;5035177;28;20312;-75
2023/03/26 06:13:46;;;;;;;4.28;1.70;;;20.90;64.00;;;;;;5085883;22;20044;-79
2023/03/26 06:16:14;;;;;;;3.88;1.58;;;20.90;64.10;;;;;;5075049;28;20079;-80
2023/03/26 06:18:47;;;;;;;5.18;1.70;;;20.90;64.10;;;;;;5058011;28;20024;-79
2023/03/26 06:21:35;;;;;;;5.95;1.95;;;20.90;64.20;;;;;;5059876;28;20047;-79
2023/03/26 06:24:09;;;;;;;4.47;1.73;;;20.90;64.10;;;;;;5039211;28;20425;-78
2023/03/26 06:26:46;;;;;;;6.40;1.73;;;20.90;64.10;;;;;;5054847;28;20035;-79
2023/03/26 06:29:30;;;;;;;5.43;1.92;;;20.90;64.10;;;;;;5072119;28;20024;-78
2023/03/26 06:32:04;;;;;;;3.90;1.70;;;20.90;64.10;;;;;;5054632;28;20058;-79
2023/03/26 06:34:43;;;;;;;5.28;1.52;;;20.90;64.20;;;;;;5054661;28;20032;-79
2023/03/26 06:37:09;;;;;;;7.65;2.67;;;20.80;64.00;;;;;;5037201;28;20031;-78
2023/03/26 06:39:36;;;;;;;4.40;2.40;;;20.90;64.20;;;;;;5054502;28;20035;-77
2023/03/26 06:42:11;;;;;;;4.30;1.70;;;20.90;64.20;;;;;;5054514;28;20481;-76
2023/03/26 06:45:09;;;;;;;4.07;1.40;;;20.90;64.30;;;;;;5054247;28;20359;-76
2023/03/26 06:47:53;;;;;;;3.80;1.80;;;20.90;64.20;;;;;;5071515;28;20036;-77
2023/03/26 06:50:51;;;;;;;3.88;1.70;;;20.90;64.30;;;;;;5038093;28;20036;-77
2023/03/26 06:53:46;;;;;;;6.25;1.90;;;20.90;64.30;;;;;;5058341;28;20060;-77
2023/03/26 06:56:38;;;;;;;5.13;2.15;;;20.90;64.40;;;;;;5068851;28;20037;-78
2023/03/26 06:59:20;;;;;;;7.60;1.92;;;20.90;64.30;;;;;;5037248;28;20056;-78
2023/03/26 07:02:25;;;;;;;5.30;1.70;;;20.90;64.40;;;;;;5029175;28;20061;-78
2023/03/26 07:05:23;;;;;;;4.38;1.80;;;20.90;64.30;;;;;;5024107;28;20037;-77
2023/03/26 07:08:07;;;;;;;5.20;1.80;;;20.90;64.30;;;;;;5047553;28;20091;-77
2023/03/26 07:10:51;;;;;;;7.05;2.03;;;20.90;64.20;;;;;;5064580;28;20031;-78
2023/03/26 07:13:43;;;;;;;3.33;1.63;;;20.90;64.30;;;;;;5053740;28;20111;-77
2023/03/26 07:16:29;;;;;;;16.33;2.33;;;20.90;64.20;;;;;;5071514;28;20028;-78
2023/03/26 07:19:07;;;;;;;5.00;1.85;;;20.90;64.30;;;;;;5038239;28;20135;-78
2023/03/26 07:21:36;;;;;;;3.65;2.05;;;20.90;64.30;;;;;;5053696;28;20393;-78
2023/03/26 07:24:12;;;;;;;4.40;2.20;;;20.90;64.30;;;;;;5053496;28;20025;-78
2023/03/26 07:27:25;;;;;;;4.90;1.80;;;20.90;64.40;;;;;;5054752;28;20048;-78
2023/03/26 07:29:58;;;;;;;;;;;20.90;64.50;;;;;;5038008;28;20101;-78
2023/03/26 07:33:04;;;;;;;2.90;1.75;;;20.90;64.50;;;;;;5057893;28;20313;-78
2023/03/26 07:36:23;;;;;;;8.93;2.33;;;20.90;64.60;;;;;;5031856;28;20164;-79
2023/03/26 07:39:39;;;;;;;4.68;1.95;;;20.90;64.40;;;;;;5071325;28;20032;-78
2023/03/26 07:42:40;;;;;;;4.30;1.83;;;20.90;64.50;;;;;;5004556;28;20044;-78
2023/03/26 07:45:36;;;;;;;6.28;2.00;;;20.90;64.60;;;;;;5071167;28;20025;-78
2023/03/26 07:48:24;;;;;;;4.57;2.08;;;20.90;64.60;;;;;;5052825;28;20368;-78
2023/03/26 07:51:25;;;;;;;4.95;2.00;;;20.90;64.50;;;;;;5019638;28;20446;-79
2023/03/26 07:54:02;;;;;;;4.53;2.20;;;20.90;64.60;;;;;;5044352;28;20068;-79
2023/03/26 07:56:59;;;;;;;4.57;2.10;;;20.90;64.60;;;;;;5071025;28;20029;-79
2023/03/26 07:59:43;;;;;;;3.30;1.92;;;20.90;64.60;;;;;;5070875;28;20028;-78
2023/03/26 08:03:24;;;;;;;4.13;2.13;;;20.90;64.50;;;;;;5070753;28;20079;-78
2023/03/26 08:06:36;;;;;;;4.80;2.20;;;20.90;64.50;;;;;;4988525;28;20034;-79
2023/03/26 08:09:28;;;;;;;3.00;1.85;;;20.90;64.50;;;;;;5008875;28;20048;-79
2023/03/26 08:12:02;;;;;;;4.78;2.28;;;20.90;64.40;;;;;;5056758;28;20031;-79
2023/03/26 08:14:51;;;;;;;3.40;1.90;;;20.90;64.50;;;;;;5053448;28;20398;-79
2023/03/26 08:17:46;;;;;;;3.47;1.80;;;20.90;64.40;;;;;;5071123;28;20032;-78
2023/03/26 08:20:46;;;;;;;5.60;2.30;;;20.90;64.40;;;;;;5057245;28;20451;-79
2023/03/26 08:23:22;;;;;;;5.18;2.20;;;20.90;64.50;;;;;;5057477;28;20131;-78
2023/03/26 08:26:05;;;;;;;7.28;2.88;;;20.90;64.40;;;;;;5056660;28;20029;-77
2023/03/26 08:29:06;;;;;;;3.80;1.92;;;20.90;64.70;;;;;;5074419;28;20477;-79
2023/03/26 08:31:50;;;;;;;5.10;2.08;;;20.90;64.40;;;;;;5056625;28;20033;-79
2023/03/26 08:34:15;;;;;;;6.03;2.50;;;20.90;64.40;;;;;;5074453;28;20043;-79
2023/03/26 08:36:41;;;;;;;4.45;1.95;;;20.90;64.40;;;;;;5074632;28;20028;-80
2023/03/26 08:39:07;;;;;;;4.30;2.00;;;20.90;64.40;;;;;;5056272;28;20032;-79
2023/03/26 08:42:04;;;;;;;5.72;2.45;;;20.90;64.40;;;;;;5041529;28;20366;-79
2023/03/26 08:45:00;;;;;;;4.13;2.00;;;20.90;64.40;;;;;;5039515;28;20032;-77
2023/03/26 08:47:26;;;;;;;6.53;2.30;;;20.90;64.60;;;;;;5056442;28;20060;-77
2023/03/26 08:50:30;;;;;;;3.25;2.10;;;20.90;64.70;;;;;;5023570;28;20481;-77
2023/03/26 08:52:58;;;;;;;4.35;2.13;;;20.90;64.70;;;;;;5074608;28;20051;-79
2023/03/26 08:55:52;;;;;;;5.03;2.28;;;20.90;64.70;;;;;;5056170;28;20036;-78
2023/03/26 08:58:47;;;;;;;5.00;2.13;;;20.90;64.50;;;;;;5040043;28;20024;-78
2023/03/26 09:01:21;;;;;;;5.00;2.10;;;20.90;64.70;;;;;;5056318;28;20398;-77
2023/03/26 09:04:25;;;;;;;3.97;1.95;;;20.90;64.60;;;;;;5056232;28;20023;-76
2023/03/26 09:06:50;;;;;;;7.13;2.05;;;20.90;64.60;;;;;;5073106;28;20051;-77
2023/03/26 09:09:45;;;;;;;4.57;2.10;;;20.90;65.30;;;;;;5073641;28;20032;-76
2023/03/26 09:12:17;;;;;;;6.22;2.40;;;21.00;66.00;;;;;;5055577;28;20063;-76
2023/03/26 09:15:27;;;;;;;9.52;2.53;;;21.00;65.70;;;;;;5056165;28;20068;-76
2023/03/26 09:18:08;;;;;;;5.85;2.20;;;21.00;67.30;;;;;;5072580;28;20039;-76
2023/03/26 09:21:08;;;;;;;7.03;2.20;;;21.00;65.20;;;;;;5056316;28;20395;-76
2023/03/26 09:24:12;;;;;;;5.97;2.42;;;20.90;66.00;;;;;;5073970;28;20097;-76
2023/03/26 09:26:38;;;;;;;7.95;2.15;;;21.00;66.50;;;;;;5072818;28;20024;-77
2023/03/26 09:29:04;;;;;;;6.13;2.13;;;20.90;65.50;;;;;;5054762;28;20017;-77
2023/03/26 09:31:56;;;;;;;7.40;2.63;;;20.90;65.30;;;;;;5056049;28;20047;-78
2023/03/26 09:34:31;;;;;;;6.10;2.13;;;20.90;65.50;;;;;;5072590;28;20452;-75
2023/03/26 09:37:19;;;;;;;12.77;2.63;;;20.90;65.00;;;;;;5073500;28;20533;-76
2023/03/26 09:39:53;;;;;;;9.45;2.22;;;20.80;59.50;;;;;;5073711;28;20028;-76
2023/03/26 09:42:36;;;;;;;11.30;2.42;;;20.60;55.30;;;;;;5055665;28;20024;-75
2023/03/26 09:45:31;;;;;;;7.55;1.95;;;20.50;53.00;;;;;;5038975;28;20526;-75
2023/03/26 09:48:15;;;;;;;5.07;1.70;;;20.40;51.10;;;;;;5055329;28;20040;-76
2023/03/26 09:50:54;;;;;;;6.32;2.10;;;20.30;51.80;;;;;;5055463;28;20397;-77
2023/03/26 09:53:37;;;;;;;;;;;20.40;53.60;;;;;;5056076;28;20036;-77
2023/03/26 09:56:09;;;;;;;8.35;2.25;;;20.40;54.70;;;;;;5055451;28;19951;-77
2023/03/26 09:58:56;;;;;;;15.75;2.10;;;20.50;56.80;;;;;;5072595;28;20031;-77
2023/03/26 10:01:36;;;;;;;16.85;2.78;;;20.60;57.50;;;;;;5072276;28;20056;-77
2023/03/26 10:04:08;;;;;;;13.52;2.33;;;20.60;57.40;;;;;;5038767;28;20613;-78
2023/03/26 10:07:12;;;;;;;6.35;2.28;;;20.70;58.10;;;;;;5073260;28;20040;-78
2023/03/26 10:10:15;;;;;;;13.50;3.00;;;20.70;57.90;;;;;;5073139;28;20029;-78
2023/03/26 10:12:44;;;;;;;7.97;2.40;;;20.70;58.40;;;;;;5071911;28;20068;-79
2023/03/26 10:15:30;;;;;;;8.18;2.20;;;20.70;59.00;;;;;;5072543;28;20035;-79
2023/03/26 10:18:19;;;;;;;10.48;2.25;;;20.70;59.20;;;;;;5054144;28;20111;-78
2023/03/26 10:21:04;;;;;;;10.52;2.40;;;20.70;59.70;;;;;;5055101;28;20503;-81
2023/03/26 10:23:29;;;;;;;9.80;2.30;;;20.70;60.60;;;;;;5072774;28;20367;-78
2023/03/26 10:26:03;;;;;;;16.75;2.33;;;20.80;59.70;;;;;;5072319;28;20046;-76
2023/03/26 10:28:58;;;;;;;22.50;2.65;;;20.80;60.10;;;;;;5037941;28;20024;-77
2023/03/26 10:31:33;;;;;;;19.63;2.58;;;20.90;60.20;;;;;;5072540;28;20032;-77
2023/03/26 10:34:45;;;;;;;14.95;2.42;;;20.90;60.20;;;;;;5054562;28;20099;-76
2023/03/26 10:37:28;;;;;;;13.98;2.78;;;20.90;61.20;;;;;;5034513;28;20049;-77
2023/03/26 10:40:09;;;;;;;12.82;3.10;;;21.00;61.50;;;;;;5071673;28;20070;-77
2023/03/26 10:43:08;;;;;;;14.38;2.90;;;21.00;62.60;;;;;;5054326;28;20470;-77
2023/03/26 10:46:03;;;;;;;18.08;3.00;;;21.00;62.20;;;;;;5071798;28;20111;-77
2023/03/26 10:48:51;;;;;;;14.52;3.13;;;21.00;62.90;;;;;;5071431;28;20028;-77
2023/03/26 10:51:41;;;;;;;22.05;3.00;;;21.00;63.30;;;;;;5053481;28;20505;-78
2023/03/26 10:54:29;;;;;;;14.02;3.38;;;21.00;63.20;;;;;;5072102;28;20487;-77
2023/03/26 10:56:56;;;;;;;15.88;3.00;;;21.00;63.30;;;;;;5071959;28;20035;-76
2023/03/26 10:59:26;;;;;;;18.38;3.08;;;21.00;63.50;;;;;;5071888;28;20113;-77
2023/03/26 11:02:21;;;;;;;16.42;2.80;;;21.00;63.40;;;;;;5053043;28;20020;-77
2023/03/26 11:05:05;;;;;;;13.07;3.00;;;21.00;64.10;;;;;;5062142;28;20033;-77
2023/03/26 11:08:04;;;;;;;19.27;3.88;;;21.00;63.50;;;;;;5071544;28;20033;-78
2023/03/26 11:10:58;;;;;;;16.70;3.55;;;21.00;63.80;;;;;;5072030;28;20131;-78
2023/03/26 11:13:58;;;;;;;13.75;3.00;;;21.00;63.60;;;;;;5063059;28;20029;-78
2023/03/26 11:16:27;;;;;;;16.52;2.75;;;21.00;63.00;;;;;;5071588;28;20044;-77
2023/03/26 11:19:21;;;;;;;14.50;2.90;;;21.00;63.00;;;;;;5053549;28;20090;-77
2023/03/26 11:22:06;;;;;;;8.23;2.92;;;21.00;62.80;;;;;;5072757;28;20035;-78
2023/03/26 11:24:51;;;;;;;11.80;3.00;;;21.00;62.90;;;;;;5067945;28;20032;-76
2023/03/26 11:27:22;;;;;;;11.40;2.75;;;21.00;62.60;;;;;;5073463;28;20032;-79
2023/03/26 11:30:14;;;;;;;10.23;2.60;;;20.90;61.90;;;;;;5090603;28;20113;-76
2023/03/26 11:32:53;;;;;;;18.20;2.92;;;20.90;62.30;;;;;;5049369;28;20074;-78
2023/03/26 11:35:31;;;;;;;14.02;3.15;;;21.00;62.90;;;;;;5057457;28;20119;-78
2023/03/26 11:38:04;;;;;;;12.80;3.20;;;21.00;62.70;;;;;;5053473;28;20028;-78
2023/03/26 11:40:40;;;;;;;11.90;3.40;;;21.10;64.00;;;;;;5071806;28;20021;-79
2023/03/26 11:43:18;;;;;;;9.30;3.00;;;21.10;63.90;;;;;;5038335;28;20036;-78
2023/03/26 11:45:45;;;;;;;;;;;21.10;64.60;;;;;;5071513;28;20028;-78
2023/03/26 11:48:53;;;;;;;15.57;3.03;;;21.10;62.90;;;;;;5071144;28;19912;-77
2023/03/26 11:51:31;;;;;;;14.30;3.13;;;21.10;63.80;;;;;;5009138;28;20483;-77
2023/03/26 11:53:58;;;;;;;12.63;2.90;;;21.00;64.10;;;;;;5062676;28;20567;-77
2023/03/26 11:56:33;;;;;;;15.60;2.90;;;21.00;62.90;;;;;;5071116;28;20024;-78
2023/03/26 11:59:25;;;;;;;13.50;3.08;;;21.00;62.90;;;;;;5070818;28;20024;-78
2023/03/26 12:02:16;;;;;;;16.20;2.92;;;21.00;63.00;;;;;;5048489;28;20108;-78
2023/03/26 12:04:44;;;;;;;20.67;3.78;;;21.00;63.70;;;;;;5068353;28;20025;-78
2023/03/26 12:07:22;;;;;;;16.65;3.83;;;21.00;63.60;;;;;;5052761;28;20034;-79
2023/03/26 12:09:53;;;;;;;19.52;3.53;;;21.00;63.70;;;;;;5071102;28;20033;-76
2023/03/26 12:12:20;;;;;;;18.83;3.45;;;21.10;64.40;;;;;;5036671;28;20113;-79
2023/03/26 12:14:48;;;;;;;23.10;3.58;;;21.10;64.50;;;;;;5070604;28;20028;-79
2023/03/26 12:17:28;;;;;;;15.82;3.05;;;21.10;64.60;;;;;;5070860;28;20028;-79
2023/03/26 12:19:54;;;;;;;16.70;3.40;;;21.10;64.60;;;;;;5070906;28;20386;-79
2023/03/26 12:22:36;;;;;;;13.52;3.28;;;21.10;64.80;;;;;;5051236;28;20021;-80
2023/03/26 12:25:19;;;;;;;13.23;3.35;;;21.10;65.00;;;;;;5029784;28;20125;-81
2023/03/26 12:28:16;;;;;;;21.50;3.88;;;21.10;64.80;;;;;;5068652;28;20411;-81
2023/03/26 12:31:01;;;;;;;23.27;3.63;;;21.10;64.80;;;;;;5068879;28;20082;-81
2023/03/26 12:33:33;;;;;;;14.75;3.22;;;21.10;64.10;;;;;;5066992;28;20471;-79
2023/03/26 12:36:18;;;;;;;19.67;3.28;;;21.10;64.70;;;;;;5065446;28;20460;-78
2023/03/26 12:38:46;;;;;;;18.60;3.35;;;21.10;64.30;;;;;;5074824;28;20369;-79
2023/03/26 12:41:15;;;;;;;13.98;3.33;;;21.10;64.80;;;;;;5082882;28;20028;-80
2023/03/26 12:43:52;;;;;;;14.52;3.20;;;21.10;64.40;;;;;;5068421;28;20091;-79
2023/03/26 12:46:36;;;;;;;16.40;3.40;;;21.10;64.70;;;;;;5049433;28;20025;-79
2023/03/26 12:49:05;;;;;;;16.63;3.00;;;21.10;64.50;;;;;;5066090;28;20035;-79
2023/03/26 12:51:30;;;;;;;18.13;3.17;;;21.10;64.80;;;;;;5050061;28;20029;-82
2023/03/26 12:54:14;;;;;;;18.95;2.83;;;21.10;65.00;;;;;;5033775;28;20560;-81
2023/03/26 12:56:42;;;;;;;11.25;3.20;;;21.20;65.10;;;;;;5066900;28;20017;-80
2023/03/26 12:59:29;;;;;;;15.43;3.17;;;21.10;64.80;;;;;;5068363;28;20052;-80
2023/03/26 13:02:36;;;;;;;15.68;3.00;;;21.10;64.80;;;;;;5050640;28;20041;-80
2023/03/26 13:05:36;;;;;;;15.80;3.30;;;21.20;65.00;;;;;;5039032;28;20037;-79
2023/03/26 13:08:32;;;;;;;15.25;3.42;;;21.10;64.90;;;;;;5052974;28;20609;-79
2023/03/26 13:11:26;;;;;;;10.70;2.95;;;21.20;64.90;;;;;;5071570;28;20409;-78
2023/03/26 13:14:30;;;;;;;10.65;3.03;;;21.20;64.80;;;;;;5053585;28;20047;-79
2023/03/26 13:17:27;;;;;;;9.10;2.60;;;21.20;64.80;;;;;;5039797;28;20036;-79
2023/03/26 13:20:11;;;;;;;12.98;3.42;;;21.10;65.10;;;;;;5049905;28;20106;-79
2023/03/26 13:22:58;;;;;;;9.40;2.80;;;21.10;65.00;;;;;;5071596;28;20051;-79
2023/03/26 13:25:45;;;;;;;15.38;2.90;;;21.10;65.20;;;;;;5053943;28;20580;-77
2023/03/26 13:28:46;;;;;;;14.00;3.75;;;21.20;65.90;;;;;;5067082;28;20027;-77
2023/03/26 13:31:27;;;;;;;16.40;3.92;;;21.20;64.40;;;;;;5005020;28;20044;-77
2023/03/26 13:34:11;;;;;;;23.67;3.70;;;21.10;64.60;;;;;;5069805;28;20082;-80
2023/03/26 13:36:59;;;;;;;16.13;4.05;;;21.10;64.60;;;;;;5070846;28;20028;-79
2023/03/26 13:39:32;;;;;;;20.10;3.60;;;21.10;64.20;;;;;;5070382;28;20402;-79
2023/03/26 13:42:03;;;;;;;16.77;4.03;;;21.10;64.60;;;;;;5071454;28;20032;-79
2023/03/26 13:44:37;;;;;;;14.18;4.07;;;21.20;65.40;;;;;;5079386;22;20152;-74
2023/03/26 13:47:15;;;;;;;17.80;4.10;;;21.20;65.00;;;;;;5069755;28;20078;-73
2023/03/26 13:49:48;;;;;;;16.48;4.20;;;21.30;64.70;;;;;;5074608;28;20035;-75
2023/03/26 13:52:54;;;;;;;19.00;3.60;;;21.30;65.80;;;;;;5055634;28;20025;-75
2023/03/26 13:55:46;;;;;;;16.40;4.32;;;21.30;65.50;;;;;;5012355;28;20037;-75